Currently 85°F in Murrieta, California, USA
85°F
86°F / 50°F
6 mph NE
0.00"
Tuesday, April 23, 2019 11:56 AM PDT

Murrieta, California Weather Summary
Last 36 Hours

Temperature Winds Hourly Humidity Dewpoint
Time Report Norm Report Norm Max Gusts Precip. Rpt. Norm Rpt. Norm Pressure
1Tue 11:56 AM  85.4°F  72°F  6 mph NE  5 mph  11 mph  0.00"  21%  49%  40°F  51°F  29.96"
2Tue 11:53 AM  85.6°F  72°F  8 mph NW  5 mph  15 mph  ----  22%  49%  40°F  51°F  29.96"
Tue 11:00 AM  82.5°F  69°F  calm  5 mph  14 mph  0.00"  27%  54%  44°F  51°F  29.98"
Tue 10:00 AM  74.8°F  65°F  4 mph SE  4 mph  5 mph  0.00"  52%  62%  55°F  51°F  29.99"
Tue 09:00 AM  65.6°F  61°F  calm  3 mph  6 mph  0.00"  72%  74%  56°F  52°F  30.01"
Tue 08:00 AM  57.9°F  56°F  calm  2 mph  4 mph  0.00"  87%  83%  54°F  50°F  30.02"
Tue 07:00 AM  52.5°F  52°F  calm  1 mph  5 mph  0.00"  95%  88%  51°F  48°F  30.02"
3Tue 06:28 AM  50.3°F  51°F  calm  1 mph  5 mph  ----  96%  89%  49°F  47°F  30.01"
Tue 06:00 AM  50.7°F  51°F  3 mph W  1 mph  5 mph  0.00"  95%  89%  49°F  47°F  30.00"
Tue 05:00 AM  50.9°F  51°F  calm  1 mph  7 mph  0.00"  95%  87%  49°F  47°F  29.99"
Tue 04:00 AM  51.4°F  52°F  calm  1 mph  5 mph  0.00"  95%  87%  50°F  48°F  29.99"
Tue 03:00 AM  51.9°F  52°F  3 mph W  1 mph  8 mph  0.00"  93%  86%  50°F  48°F  29.99"
Tue 02:00 AM  52.4°F  53°F  calm  2 mph  7 mph  0.00"  93%  85%  50°F  48°F  30.01"
Tue 01:00 AM  53.5°F  53°F  2 mph SW  2 mph  6 mph  0.00"  91%  84%  51°F  49°F  30.01"
Tue 12:00 AM  54.7°F  54°F  3 mph SW  2 mph  5 mph  0.00"  90%  83%  52°F  49°F  30.02"
Mon 11:00 PM  56.4°F  55°F  calm  2 mph  4 mph  0.00"  86%  81%  52°F  49°F  30.02"
Mon 10:00 PM  59.1°F  56°F  calm  3 mph  none  0.00"  82%  79%  53°F  50°F  30.01"
Mon 09:00 PM  58.7°F  58°F  calm  4 mph  12 mph  0.00"  85%  76%  54°F  50°F  29.99"
Mon 08:00 PM  59.5°F  60°F  calm  5 mph  15 mph  0.00"  84%  72%  55°F  51°F  29.98"
Mon 07:00 PM  61.5°F  64°F  7 mph SW  7 mph  22 mph  0.00"  80%  65%  55°F  51°F  29.95"
Mon 06:00 PM  64.4°F  68°F  10 mph W  8 mph  26 mph  0.00"  74%  58%  56°F  51°F  29.95"
Mon 05:00 PM  69.3°F  71°F  5 mph W  8 mph  23 mph  0.00"  64%  51%  56°F  51°F  29.92"
Mon 04:00 PM  70.4°F  73°F  10 mph SW  9 mph  25 mph  0.00"  60%  48%  55°F  51°F  29.92"
Mon 03:00 PM  73.3°F  74°F  11 mph SW  8 mph  27 mph  0.00"  52%  46%  54°F  51°F  29.93"
Mon 02:00 PM  80.4°F  74°F  calm  8 mph  13 mph  0.00"  29%  46%  44°F  51°F  29.96"
Mon 01:00 PM  80.1°F  73°F  7 mph NW  6 mph  14 mph  0.00"  32%  46%  47°F  51°F  29.98"
Mon 12:00 PM  76.3°F  72°F  calm  5 mph  15 mph  0.00"  35%  48%  45°F  50°F  29.99"
Mon 11:00 AM  69.5°F  69°F  3 mph S  5 mph  7 mph  0.00"  53%  53%  51°F  51°F  30.01"
Mon 10:00 AM  62.5°F  65°F  calm  4 mph  8 mph  0.00"  67%  61%  51°F  51°F  30.02"
Mon 09:00 AM  58.8°F  60°F  calm  3 mph  5 mph  0.00"  75%  73%  51°F  51°F  30.03"
Mon 08:00 AM  54.1°F  55°F  calm  2 mph  5 mph  0.00"  85%  83%  49°F  50°F  30.03"
Mon 07:00 AM  47.7°F  51°F  2 mph SW  1 mph  8 mph  0.00"  95%  88%  46°F  48°F  30.03"
Mon 06:00 AM  47.0°F  50°F  4 mph W  1 mph  10 mph  0.00"  95%  89%  46°F  47°F  30.02"
Mon 05:00 AM  47.7°F  51°F  calm  1 mph  10 mph  0.00"  94%  88%  46°F  47°F  30.01"
Mon 04:00 AM  48.0°F  51°F  7 mph SW  1 mph  11 mph  0.00"  94%  87%  46°F  47°F  30.02"
Mon 03:00 AM  49.6°F  52°F  calm  1 mph  10 mph  0.00"  91%  86%  47°F  48°F  30.02"
Mon 02:00 AM  52.7°F  52°F  calm  2 mph  none  0.00"  86%  85%  49°F  48°F  30.03"
Mon 01:00 AM  53.2°F  53°F  calm  2 mph  none  0.00"  86%  84%  49°F  48°F  30.04"
Mon 12:00 AM  53.0°F  54°F  calm  2 mph  none  0.00"  86%  83%  49°F  49°F  30.05"

  1. Current weather data. No green row appears if the current weather data is also the high or low for the current day.
  2. High temperature for the current day.
  3. Low temperature for the current day.

The Murrieta weather pages are a service of WeatherCurrents. Murrieta, California is located in the Temecula Valley, in southwestern Riverside County, at the junctions of the Interstate 15 and 215 highways.
Copyright ©2019  WeatherCurrents. All rights reserved. - Submit questions and comments - Privacy Policy

This page automatically refreshes every 10 minutes.